Time;durP1;ratioP1;P1;durP2;ratioP2;P2;SDS_P1;SDS_P2;PMS_P1;PMS_P2;Temp;Humidity;BMP_temperature;BMP_pressure;BME280_temperature;BME280_humidity;BME280_pressure;Samples;Min_cycle;Max_cycle;Signal;HPM_P1;HPM_P2
2023/05/06 00:01:14;;;;;;;28.85;25.77;;;9.80;99.90;;;;;;5005760;28;20117;-76
2023/05/06 00:03:40;;;;;;;29.00;25.90;;;9.80;99.90;;;;;;5016495;28;20037;-76
2023/05/06 00:06:07;;;;;;;31.60;27.83;;;9.80;99.90;;;;;;5001213;28;20030;-76
2023/05/06 00:08:36;;;;;;;26.48;23.92;;;9.80;99.90;;;;;;5008871;28;20050;-76
2023/05/06 00:11:02;;;;;;;35.35;28.02;;;9.70;99.90;;;;;;4988503;28;20141;-76
2023/05/06 00:13:27;;;;;;;36.20;30.88;;;9.80;99.90;;;;;;4994811;28;20525;-76
2023/05/06 00:15:53;;;;;;;37.15;30.52;;;9.80;99.90;;;;;;5000787;28;20461;-76
2023/05/06 00:18:21;;;;;;;31.33;28.23;;;9.90;99.90;;;;;;4991935;28;20096;-76
2023/05/06 00:20:49;;;;;;;33.00;29.40;;;9.90;99.90;;;;;;4986280;28;20387;-76
2023/05/06 00:23:15;;;;;;;34.90;31.58;;;10.00;99.90;;;;;;5011539;28;20413;-76
2023/05/06 00:25:41;;;;;;;29.38;26.48;;;10.00;99.90;;;;;;4999959;28;20054;-76
2023/05/06 00:28:07;;;;;;;28.92;25.92;;;10.00;99.90;;;;;;4989089;28;20038;-76
2023/05/06 00:30:32;;;;;;;28.13;24.98;;;10.10;99.90;;;;;;4989116;28;20669;-75
2023/05/06 00:33:01;;;;;;;29.98;27.02;;;10.10;99.90;;;;;;4996638;28;20129;-76
2023/05/06 00:35:26;;;;;;;29.85;26.80;;;10.10;99.90;;;;;;4990614;28;20192;-76
2023/05/06 00:38:12;;;;;;;38.58;34.63;;;10.00;99.90;;;;;;5015923;28;20502;-76
2023/05/06 00:40:39;;;;;;;34.17;30.92;;;10.00;99.90;;;;;;5000620;28;20216;-76
2023/05/06 00:43:08;;;;;;;31.00;27.88;;;9.90;99.90;;;;;;4974804;28;20050;-76
2023/05/06 00:45:34;;;;;;;27.25;24.67;;;9.90;99.90;;;;;;5002504;28;20394;-76
2023/05/06 00:48:00;;;;;;;29.40;26.38;;;9.80;99.90;;;;;;4994942;28;20042;-76
2023/05/06 00:50:28;;;;;;;24.92;22.30;;;9.90;99.90;;;;;;4999146;28;20057;-76
2023/05/06 00:52:55;;;;;;;27.50;23.77;;;9.80;99.90;;;;;;5010389;28;20129;-76
2023/05/06 00:55:21;;;;;;;25.23;22.13;;;9.80;99.90;;;;;;4997811;28;20413;-76
2023/05/06 00:57:53;;;;;;;25.02;22.50;;;9.70;99.90;;;;;;4998325;28;20040;-76
2023/05/06 01:00:21;;;;;;;27.40;24.75;;;9.70;99.90;;;;;;4985828;28;20118;-76
2023/05/06 01:02:50;;;;;;;23.05;20.98;;;9.70;99.90;;;;;;5010318;28;20037;-76
2023/05/06 01:05:21;;;;;;;22.00;19.85;;;9.70;99.90;;;;;;4997238;28;20409;-76
2023/05/06 01:08:13;;;;;;;22.30;20.20;;;9.70;99.90;;;;;;4999140;28;20208;-76
2023/05/06 01:10:52;;;;;;;24.77;22.45;;;9.70;99.90;;;;;;5002262;28;20041;-76
2023/05/06 01:13:40;;;;;;;31.50;26.65;;;9.60;99.90;;;;;;5027047;28;20034;-76
2023/05/06 01:16:11;;;;;;;22.15;20.00;;;9.60;99.90;;;;;;5012921;28;20034;-76
2023/05/06 01:18:42;;;;;;;32.35;23.67;;;9.50;99.90;;;;;;5015764;28;20429;-76
2023/05/06 01:21:11;;;;;;;26.15;23.00;;;9.40;99.90;;;;;;4980433;28;20046;-76
2023/05/06 01:23:58;;;;;;;32.92;25.95;;;9.30;99.90;;;;;;4974714;28;20039;-76
2023/05/06 01:26:24;;;;;;;52.70;34.58;;;9.20;99.90;;;;;;5010687;28;20410;-76
2023/05/06 01:28:50;;;;;;;30.85;20.15;;;9.20;99.90;;;;;;5001440;28;20029;-76
2023/05/06 01:31:39;;;;;;;33.92;25.10;;;9.10;99.90;;;;;;4993239;28;20112;-76
2023/05/06 01:34:12;;;;;;;45.78;32.00;;;9.10;99.90;;;;;;4949237;28;20061;-76
2023/05/06 01:36:44;;;;;;;;;;;8.90;99.90;;;;;;5006085;28;20409;-76
2023/05/06 01:39:16;;;;;;;27.08;24.30;;;8.80;99.90;;;;;;4988733;28;19922;-76
2023/05/06 01:41:43;;;;;;;44.25;33.75;;;8.80;99.90;;;;;;4996947;28;20041;-76
2023/05/06 01:44:10;;;;;;;40.08;33.72;;;8.70;99.90;;;;;;5030404;28;20077;-76
2023/05/06 01:46:36;;;;;;;43.97;37.60;;;8.70;99.90;;;;;;5005003;28;20140;-76
2023/05/06 01:49:05;;;;;;;41.28;36.88;;;8.80;99.90;;;;;;5030256;28;20345;-76
2023/05/06 01:51:39;;;;;;;44.08;37.83;;;8.90;99.90;;;;;;4997420;28;20053;-76
2023/05/06 01:54:05;;;;;;;47.28;37.88;;;8.90;99.90;;;;;;5013896;28;20033;-76
2023/05/06 01:56:30;;;;;;;42.05;37.28;;;9.00;99.90;;;;;;5021757;28;20038;-76
2023/05/06 01:58:57;;;;;;;49.30;41.80;;;9.00;99.90;;;;;;4998526;28;20042;-76
2023/05/06 02:01:25;;;;;;;44.40;39.13;;;9.00;99.90;;;;;;4999782;28;20118;-76
2023/05/06 02:03:54;;;;;;;43.45;37.28;;;9.10;99.90;;;;;;5005560;28;20049;-76
2023/05/06 02:06:19;;;;;;;62.95;48.85;;;9.10;99.90;;;;;;5012276;28;20038;-76
2023/05/06 02:08:51;;;;;;;43.80;39.13;;;9.10;99.90;;;;;;5004907;28;20048;-76
2023/05/06 02:11:17;;;;;;;39.55;35.33;;;9.20;99.90;;;;;;4996347;28;20525;-76
2023/05/06 02:13:44;;;;;;;53.40;36.25;;;9.20;99.90;;;;;;4988098;28;20112;-76
2023/05/06 02:16:12;;;;;;;49.03;40.75;;;9.10;99.90;;;;;;5022319;28;20044;-76
2023/05/06 02:18:37;;;;;;;36.10;32.05;;;9.20;99.90;;;;;;5014667;28;20124;-76
2023/05/06 02:21:12;;;;;;;34.38;30.83;;;9.20;99.90;;;;;;5031129;28;20129;-76
2023/05/06 02:23:37;;;;;;;39.83;33.28;;;9.20;99.90;;;;;;4994790;28;20053;-76
2023/05/06 02:26:05;;;;;;;46.03;31.30;;;9.20;99.90;;;;;;5002313;28;20038;-76
2023/05/06 02:28:31;;;;;;;50.35;35.75;;;9.10;99.90;;;;;;5014775;28;20045;-76
2023/05/06 02:30:59;;;;;;;53.47;36.45;;;9.10;99.90;;;;;;4977456;28;20582;-76
2023/05/06 02:33:25;;;;;;;31.95;28.55;;;9.00;99.90;;;;;;5004766;28;20297;-76
2023/05/06 02:35:54;;;;;;;46.65;40.58;;;8.90;99.90;;;;;;5030483;28;20460;-76
2023/05/06 02:38:23;;;;;;;52.83;39.25;;;8.90;99.90;;;;;;5016216;28;20096;-76
2023/05/06 02:40:51;;;;;;;67.05;44.80;;;8.90;99.90;;;;;;4993547;28;20104;-77
2023/05/06 02:43:17;;;;;;;87.45;54.70;;;8.90;99.90;;;;;;4988729;28;20093;-76
2023/05/06 02:45:48;;;;;;;45.72;39.83;;;8.90;99.90;;;;;;5010575;28;20077;-76
2023/05/06 02:48:14;;;;;;;73.40;51.22;;;8.90;99.90;;;;;;4988057;28;20502;-76
2023/05/06 02:50:40;;;;;;;42.45;37.78;;;8.80;99.90;;;;;;4995747;28;20432;-76
2023/05/06 02:53:05;;;;;;;54.58;42.40;;;8.80;99.90;;;;;;5011777;28;20042;-76
2023/05/06 02:55:31;;;;;;;52.08;41.05;;;8.80;99.90;;;;;;5011664;28;20041;-76
2023/05/06 02:57:57;;;;;;;59.72;42.17;;;8.70;99.90;;;;;;5020930;28;20124;-76
2023/05/06 03:00:25;;;;;;;44.03;36.22;;;8.70;99.90;;;;;;4999703;28;20076;-76
2023/05/06 03:02:53;;;;;;;39.33;33.50;;;8.70;99.90;;;;;;5023623;28;20409;-76
2023/05/06 03:05:21;;;;;;;37.13;31.60;;;8.60;99.90;;;;;;4996944;28;20045;-76
2023/05/06 03:07:46;;;;;;;69.60;43.42;;;8.60;99.90;;;;;;5031418;28;20049;-76
2023/05/06 03:10:15;;;;;;;49.25;42.70;;;8.50;99.90;;;;;;5012166;28;20038;-76
2023/05/06 03:12:45;;;;;;;37.80;33.03;;;8.40;99.90;;;;;;5009077;28;20494;-76
2023/05/06 03:15:13;;;;;;;69.40;44.92;;;8.40;99.90;;;;;;5007152;28;20087;-76
2023/05/06 03:17:39;;;;;;;35.53;31.48;;;8.40;99.90;;;;;;5027489;28;20460;-76
2023/05/06 03:20:07;;;;;;;71.30;41.88;;;8.40;99.90;;;;;;5011922;28;20125;-76
2023/05/06 03:22:35;;;;;;;39.92;33.47;;;8.30;99.90;;;;;;5010407;28;20288;-76
2023/05/06 03:25:01;;;;;;;52.28;42.22;;;8.30;99.90;;;;;;5005550;28;20392;-76
2023/05/06 03:27:27;;;;;;;91.55;54.75;;;8.20;99.90;;;;;;5032030;28;20040;-76
2023/05/06 03:29:52;;;;;;;88.60;51.55;;;8.20;99.90;;;;;;5011195;28;20112;-76
2023/05/06 03:32:18;;;;;;;88.10;45.28;;;8.20;99.90;;;;;;5003797;28;20050;-76
2023/05/06 03:34:44;;;;;;;67.28;40.00;;;8.20;99.90;;;;;;5011642;28;20581;-76
2023/05/06 03:37:09;;;;;;;112.88;56.10;;;8.10;99.90;;;;;;5015389;28;20041;-76
2023/05/06 03:39:35;;;;;;;123.13;55.92;;;8.20;99.90;;;;;;4992993;28;20074;-76
2023/05/06 03:42:01;;;;;;;165.40;73.78;;;8.10;99.90;;;;;;4985756;28;20498;-76
2023/05/06 03:44:27;;;;;;;178.65;71.70;;;8.10;99.90;;;;;;5008178;28;20077;-76
2023/05/06 03:46:52;;;;;;;85.68;54.15;;;8.20;99.90;;;;;;5031082;28;20038;-76
2023/05/06 03:49:19;;;;;;;141.07;69.85;;;8.10;99.90;;;;;;4992919;28;20041;-76
2023/05/06 03:51:52;;;;;;;287.55;119.80;;;8.10;99.90;;;;;;5003186;28;20049;-76
2023/05/06 03:54:18;;;;;;;165.50;72.55;;;8.10;99.90;;;;;;4995032;28;20108;-76
2023/05/06 03:56:46;;;;;;;86.82;57.17;;;8.20;99.90;;;;;;5014445;28;20464;-76
2023/05/06 03:59:14;;;;;;;74.20;48.75;;;8.20;99.90;;;;;;5014172;28;20120;-75
2023/05/06 04:01:42;;;;;;;152.63;78.18;;;8.20;99.90;;;;;;5002424;28;20080;-76
2023/05/06 04:04:11;;;;;;;90.10;57.22;;;8.10;99.90;;;;;;5024025;28;20128;-75
2023/05/06 04:06:40;;;;;;;90.78;56.33;;;8.20;99.90;;;;;;4992949;28;20510;-76
2023/05/06 04:09:05;;;;;;;174.32;82.40;;;8.20;99.90;;;;;;5001393;28;20248;-76
2023/05/06 04:11:31;;;;;;;129.60;73.78;;;8.20;99.90;;;;;;5011110;28;20053;-75
2023/05/06 04:13:56;;;;;;;234.95;100.45;;;8.20;99.90;;;;;;5002726;28;20532;-76
2023/05/06 04:16:22;;;;;;;225.85;102.18;;;8.10;99.90;;;;;;4996592;28;20432;-76
2023/05/06 04:18:48;;;;;;;140.52;76.85;;;8.20;99.90;;;;;;4991981;28;20040;-76
2023/05/06 04:21:17;;;;;;;171.85;94.85;;;8.20;99.90;;;;;;5012176;28;20042;-75
2023/05/06 04:23:43;;;;;;;161.32;91.55;;;8.30;99.90;;;;;;4994562;28;20100;-76
2023/05/06 04:26:09;;;;;;;195.38;98.97;;;8.40;99.90;;;;;;5007756;28;20041;-75
2023/05/06 04:28:35;;;;;;;146.52;89.72;;;8.40;99.90;;;;;;5009173;28;20498;-76
2023/05/06 04:31:01;;;;;;;196.93;99.63;;;8.40;99.90;;;;;;4991110;28;20080;-76
2023/05/06 04:33:30;;;;;;;200.25;100.25;;;8.50;99.90;;;;;;5010924;28;20046;-76
2023/05/06 04:35:55;;;;;;;229.00;104.50;;;8.50;99.90;;;;;;5027200;28;20505;-76
2023/05/06 04:38:25;;;;;;;243.88;107.53;;;8.60;99.90;;;;;;5026002;28;20049;-76
2023/05/06 04:40:51;;;;;;;129.82;68.85;;;8.50;99.90;;;;;;5022299;28;20092;-76
2023/05/06 04:43:17;;;;;;;166.07;83.32;;;8.50;99.90;;;;;;5010714;28;20446;-76
2023/05/06 04:45:48;;;;;;;140.30;69.07;;;8.50;99.90;;;;;;5010393;28;20045;-76
2023/05/06 04:48:17;;;;;;;123.60;53.47;;;8.60;99.90;;;;;;5012690;28;20409;-76
2023/05/06 04:50:46;;;;;;;95.13;54.33;;;8.70;99.90;;;;;;5005874;28;20129;-76
2023/05/06 04:53:15;;;;;;;273.65;108.40;;;8.70;99.90;;;;;;4998487;28;20038;-76
2023/05/06 04:55:41;;;;;;;128.27;65.70;;;8.70;99.90;;;;;;5010390;28;20414;-76
2023/05/06 04:58:06;;;;;;;209.52;89.28;;;8.80;99.90;;;;;;4997308;28;20057;-76
2023/05/06 05:00:35;;;;;;;160.60;83.03;;;8.90;99.90;;;;;;5010104;28;20034;-76
2023/05/06 05:03:03;;;;;;;202.75;75.60;;;9.00;99.90;;;;;;4985191;28;20045;-76
2023/05/06 05:05:33;;;;;;;361.60;114.07;;;9.10;99.90;;;;;;4986497;28;20092;-76
2023/05/06 05:08:12;;;;;;;291.48;99.18;;;9.20;99.90;;;;;;5011684;28;20061;-76
2023/05/06 05:10:41;;;;;;;249.73;80.72;;;9.30;99.90;;;;;;5032712;28;20045;-76
2023/05/06 05:13:07;;;;;;;199.52;69.60;;;9.40;99.90;;;;;;5027494;28;20042;-76
2023/05/06 05:15:32;;;;;;;216.35;87.05;;;9.50;99.90;;;;;;5006500;28;20038;-76
2023/05/06 05:17:58;;;;;;;195.40;68.40;;;9.60;99.90;;;;;;5013958;28;20046;-76
2023/05/06 05:20:26;;;;;;;243.43;79.40;;;9.60;99.90;;;;;;5003491;28;20168;-76
2023/05/06 05:22:52;;;;;;;186.27;72.68;;;9.70;99.90;;;;;;4994078;28;20486;-76
2023/05/06 05:25:18;;;;;;;168.15;67.38;;;9.80;99.90;;;;;;5017724;28;20117;-76
2023/05/06 05:27:43;;;;;;;235.25;77.68;;;9.90;99.90;;;;;;4986796;28;20050;-76
2023/05/06 05:30:09;;;;;;;270.45;87.32;;;10.00;99.90;;;;;;5018552;28;20042;-76
2023/05/06 05:32:35;;;;;;;303.42;95.88;;;10.10;99.90;;;;;;4989817;28;20125;-76
2023/05/06 05:35:08;;;;;;;219.15;79.35;;;10.20;99.90;;;;;;5013919;28;20129;-76
2023/05/06 05:37:34;;;;;;;212.45;77.55;;;10.30;99.90;;;;;;4997586;28;20343;-76
2023/05/06 05:40:00;;;;;;;176.00;71.72;;;10.40;99.90;;;;;;5013876;28;20125;-76
2023/05/06 05:42:32;;;;;;;117.28;54.88;;;10.50;99.90;;;;;;5005841;28;20471;-76
2023/05/06 05:45:00;;;;;;;124.85;66.70;;;10.50;99.90;;;;;;5010627;28;20050;-76
2023/05/06 05:47:26;;;;;;;213.52;79.93;;;10.70;99.90;;;;;;4977578;28;20491;-76
2023/05/06 05:49:51;;;;;;;114.47;61.05;;;10.70;99.90;;;;;;4999824;28;20049;-76
2023/05/06 05:52:17;;;;;;;138.77;72.13;;;10.80;99.90;;;;;;4996751;28;20476;-76
2023/05/06 05:54:43;;;;;;;128.70;69.05;;;10.90;99.90;;;;;;5013656;28;20052;-76
2023/05/06 05:57:09;;;;;;;85.18;58.58;;;10.90;99.90;;;;;;4999743;28;20050;-76
2023/05/06 05:59:39;;;;;;;65.95;51.90;;;11.00;99.90;;;;;;5014763;28;20038;-76
2023/05/06 06:02:05;;;;;;;60.97;50.15;;;11.00;99.90;;;;;;5010496;28;20098;-76
2023/05/06 06:04:30;;;;;;;67.05;51.50;;;11.10;99.90;;;;;;5014301;28;20441;-76
2023/05/06 06:06:56;;;;;;;73.47;53.05;;;11.20;99.90;;;;;;5009175;28;20094;-75
2023/05/06 06:09:25;;;;;;;104.30;65.35;;;11.20;99.90;;;;;;5000679;28;20048;-76
2023/05/06 06:11:51;;;;;;;76.35;58.58;;;11.30;99.90;;;;;;5012100;28;20067;-76
2023/05/06 06:14:16;;;;;;;45.83;41.15;;;11.40;99.90;;;;;;5010469;28;20120;-76
2023/05/06 06:16:42;;;;;;;50.90;44.92;;;11.60;99.90;;;;;;5004834;28;20042;-76
2023/05/06 06:19:08;;;;;;;58.60;50.15;;;11.60;99.90;;;;;;5028827;28;20509;-75
2023/05/06 06:21:34;;;;;;;54.97;47.67;;;11.70;99.90;;;;;;5008306;28;20060;-76
2023/05/06 06:24:05;;;;;;;48.97;43.65;;;11.80;99.90;;;;;;5027583;28;20382;-77
2023/05/06 06:26:36;;;;;;;77.05;53.20;;;11.90;99.90;;;;;;4993964;28;20495;-77
2023/05/06 06:29:04;;;;;;;80.65;53.50;;;12.00;99.90;;;;;;4996117;28;20049;-77
2023/05/06 06:31:38;;;;;;;52.20;46.83;;;12.10;99.90;;;;;;5001000;28;20046;-76
2023/05/06 06:34:17;;;;;;;41.45;37.50;;;12.20;99.90;;;;;;5012306;28;20583;-76
2023/05/06 06:36:46;;;;;;;46.80;42.20;;;12.50;99.90;;;;;;5002606;28;20037;-76
2023/05/06 06:39:12;;;;;;;44.60;40.25;;;12.70;99.90;;;;;;4989797;28;20057;-76
2023/05/06 06:41:49;;;;;;;59.70;52.63;;;12.90;99.90;;;;;;4995806;28;20046;-75
2023/05/06 06:44:32;;;;;;;43.85;39.78;;;13.20;99.90;;;;;;5010355;28;20042;-74
2023/05/06 06:47:01;;;;;;;45.80;41.08;;;13.50;99.90;;;;;;5008956;28;20489;-75
2023/05/06 06:49:35;;;;;;;39.90;35.92;;;13.80;99.90;;;;;;5028520;28;20057;-75
2023/05/06 06:52:13;;;;;;;51.38;45.35;;;13.90;99.90;;;;;;4992505;28;20497;-75
2023/05/06 06:54:41;;;;;;;38.10;34.58;;;14.00;99.90;;;;;;4986050;28;20050;-75
2023/05/06 06:57:10;;;;;;;39.75;35.95;;;14.00;99.90;;;;;;5010434;28;20136;-75
2023/05/06 07:00:00;;;;;;;44.40;39.85;;;14.00;99.90;;;;;;5010163;28;20387;-75
2023/05/06 07:02:39;;;;;;;41.17;37.17;;;14.00;99.90;;;;;;4996560;28;20041;-75
2023/05/06 07:05:13;;;;;;;38.58;34.95;;;13.90;99.90;;;;;;4996549;28;20057;-75
2023/05/06 07:07:44;;;;;;;43.00;38.58;;;13.90;99.90;;;;;;4991473;28;20513;-75
2023/05/06 07:10:13;;;;;;;45.47;39.83;;;13.80;99.90;;;;;;4980671;28;20037;-75
2023/05/06 07:12:38;;;;;;;39.40;35.67;;;13.80;99.90;;;;;;5003590;28;20050;-75
2023/05/06 07:15:07;;;;;;;40.70;36.83;;;13.80;99.90;;;;;;5012836;28;20034;-75
2023/05/06 07:17:37;;;;;;;37.80;34.25;;;13.80;99.90;;;;;;5002872;28;20038;-75
2023/05/06 07:20:06;;;;;;;45.47;40.67;;;13.70;99.90;;;;;;4994288;28;20072;-75
2023/05/06 07:22:31;;;;;;;41.28;37.33;;;13.70;99.90;;;;;;5009405;28;20050;-76
2023/05/06 07:24:57;;;;;;;32.75;29.90;;;13.80;99.90;;;;;;5010699;28;20141;-75
2023/05/06 07:27:23;;;;;;;42.60;38.03;;;13.80;99.90;;;;;;4985783;28;20133;-75
2023/05/06 07:29:48;;;;;;;36.17;32.75;;;14.00;99.90;;;;;;5003408;28;20038;-75
2023/05/06 07:32:14;;;;;;;38.67;34.83;;;14.10;99.90;;;;;;5025610;28;20092;-75
2023/05/06 07:34:40;;;;;;;32.70;29.55;;;14.10;99.90;;;;;;5003489;28;20042;-75
2023/05/06 07:37:07;;;;;;;28.80;26.23;;;14.20;99.90;;;;;;5010416;28;20046;-75
2023/05/06 07:39:32;;;;;;;29.52;26.95;;;14.20;99.90;;;;;;5011749;28;20100;-75
2023/05/06 07:41:58;;;;;;;26.05;23.75;;;14.30;99.90;;;;;;5010787;28;20525;-75
2023/05/06 07:44:24;;;;;;;28.08;25.55;;;14.30;99.90;;;;;;5027878;28;20041;-75
2023/05/06 07:46:49;;;;;;;29.05;26.45;;;14.40;99.90;;;;;;5008416;28;20074;-75
2023/05/06 07:49:15;;;;;;;24.55;22.45;;;14.50;99.90;;;;;;5008163;28;20034;-75
2023/05/06 07:51:43;;;;;;;26.38;24.05;;;14.60;99.90;;;;;;5028130;28;20041;-75
2023/05/06 07:54:10;;;;;;;25.60;23.40;;;14.70;99.90;;;;;;5011933;28;20046;-75
2023/05/06 07:56:35;;;;;;;26.55;24.20;;;14.80;99.90;;;;;;5010370;28;20569;-75
2023/05/06 07:59:01;;;;;;;27.42;24.98;;;14.80;99.90;;;;;;4998449;28;20125;-75
2023/05/06 08:01:27;;;;;;;28.67;26.25;;;14.90;99.90;;;;;;5007891;28;20080;-75
2023/05/06 08:03:54;;;;;;;29.55;27.00;;;15.00;99.90;;;;;;4991843;28;20034;-75
2023/05/06 08:06:19;;;;;;;24.25;22.20;;;15.10;99.90;;;;;;4991843;28;20038;-75
2023/05/06 08:08:47;;;;;;;26.35;24.15;;;15.20;99.90;;;;;;4988045;28;20046;-75
2023/05/06 08:11:13;;;;;;;28.50;26.02;;;15.30;99.90;;;;;;5004609;28;20446;-75
2023/05/06 08:13:38;;;;;;;26.75;24.45;;;15.50;99.90;;;;;;5003018;28;20037;-75
2023/05/06 08:16:05;;;;;;;26.80;24.52;;;16.00;99.90;;;;;;5010784;28;20431;-75
2023/05/06 08:18:31;;;;;;;24.17;22.08;;;16.80;99.90;;;;;;5011058;28;20038;-75
2023/05/06 08:20:57;;;;;;;21.17;19.33;;;17.70;99.90;;;;;;5010601;28;20128;-76
2023/05/06 08:23:23;;;;;;;19.55;17.75;;;18.40;99.90;;;;;;5002923;28;20150;-75
2023/05/06 08:25:49;;;;;;;19.05;17.55;;;19.10;99.90;;;;;;5007862;28;20062;-76
2023/05/06 08:28:14;;;;;;;20.88;18.98;;;19.80;99.90;;;;;;4987886;28;20042;-75
2023/05/06 08:30:40;;;;;;;19.27;17.63;;;20.20;99.90;;;;;;5009501;28;20046;-76
2023/05/06 08:33:06;;;;;;;18.00;16.30;;;20.70;99.90;;;;;;5011075;28;20096;-76
2023/05/06 08:35:31;;;;;;;16.40;15.00;;;21.10;99.90;;;;;;4994042;28;20548;-76
2023/05/06 08:37:57;;;;;;;17.02;15.57;;;21.40;99.90;;;;;;5002180;28;20476;-76
2023/05/06 08:40:31;;;;;;;18.20;16.70;;;21.70;99.90;;;;;;4994452;28;20060;-76
2023/05/06 08:42:58;;;;;;;18.10;16.70;;;22.00;99.90;;;;;;4994587;28;20095;-76
2023/05/06 08:45:23;;;;;;;17.63;16.23;;;22.20;99.90;;;;;;5027265;28;20445;-76
2023/05/06 08:47:49;;;;;;;17.95;16.25;;;22.40;99.90;;;;;;5026287;28;20034;-76
2023/05/06 08:50:15;;;;;;;16.98;15.57;;;22.70;99.90;;;;;;5010836;28;20045;-76
2023/05/06 08:52:41;;;;;;;16.80;15.40;;;22.90;99.90;;;;;;5007696;28;20065;-76
2023/05/06 08:55:08;;;;;;;17.08;15.68;;;23.10;99.90;;;;;;5004331;28;20038;-76
2023/05/06 08:57:37;;;;;;;16.67;15.38;;;23.30;99.90;;;;;;5010244;28;20053;-76
2023/05/06 09:00:03;;;;;;;17.73;16.13;;;23.60;99.90;;;;;;5027206;28;20057;-76
2023/05/06 09:02:29;;;;;;;17.20;15.60;;;23.70;99.90;;;;;;5027210;28;20037;-76
2023/05/06 09:04:55;;;;;;;16.13;14.73;;;23.70;99.90;;;;;;5027100;28;20124;-76
2023/05/06 09:07:22;;;;;;;16.60;15.25;;;23.70;99.90;;;;;;5009717;28;20065;-76
2023/05/06 09:09:48;;;;;;;16.73;15.15;;;23.60;99.90;;;;;;4983211;28;20034;-76
2023/05/06 09:12:14;;;;;;;16.75;15.35;;;23.70;99.90;;;;;;4990766;28;20042;-76
2023/05/06 09:14:41;;;;;;;17.85;16.30;;;23.80;99.90;;;;;;4990752;28;20038;-76
2023/05/06 09:17:30;;;;;;;16.17;14.77;;;23.90;99.90;;;;;;5007019;28;20053;-76
2023/05/06 09:19:56;;;;;;;17.67;16.17;;;24.20;99.90;;;;;;5007237;28;20039;-76
2023/05/06 09:22:26;;;;;;;16.15;14.57;;;24.10;99.90;;;;;;5003427;28;20553;-76
2023/05/06 09:24:55;;;;;;;17.35;15.82;;;24.20;99.90;;;;;;4992245;28;20046;-76
2023/05/06 09:27:32;;;;;;;15.82;14.43;;;24.20;99.90;;;;;;5010139;28;20088;-76
2023/05/06 09:30:04;;;;;;;16.15;14.65;;;24.30;99.90;;;;;;5010759;28;20367;-76
2023/05/06 09:32:30;;;;;;;15.77;14.27;;;24.20;99.90;;;;;;5009341;28;20109;-76
2023/05/06 09:34:58;;;;;;;16.13;14.68;;;24.20;99.90;;;;;;4998633;28;20042;-76
2023/05/06 09:37:27;;;;;;;16.52;15.02;;;24.30;99.90;;;;;;5006226;28;20403;-76
2023/05/06 09:39:59;;;;;;;15.75;14.32;;;24.60;99.90;;;;;;5010167;28;20462;-76
2023/05/06 09:42:29;;;;;;;15.68;14.07;;;24.60;99.90;;;;;;5010420;28;20064;-76
2023/05/06 09:44:57;;;;;;;15.77;14.27;;;24.60;99.90;;;;;;4993809;28;20088;-76
2023/05/06 09:47:25;;;;;;;15.48;14.02;;;24.50;99.90;;;;;;5009576;28;20524;-76
2023/05/06 09:49:54;;;;;;;16.60;15.15;;;24.50;99.90;;;;;;5002313;28;20118;-76
2023/05/06 09:52:22;;;;;;;16.35;14.80;;;24.50;99.90;;;;;;4985861;28;20088;-76
2023/05/06 09:54:50;;;;;;;16.85;15.23;;;24.50;99.90;;;;;;5010233;28;20038;-76
2023/05/06 09:57:19;;;;;;;16.88;15.27;;;24.30;99.90;;;;;;5010832;28;20037;-76
2023/05/06 09:59:46;;;;;;;16.55;15.05;;;24.40;99.90;;;;;;5009832;28;20050;-76
2023/05/06 10:02:12;;;;;;;15.82;14.32;;;24.40;99.90;;;;;;4997031;28;20112;-76
2023/05/06 10:04:40;;;;;;;16.42;15.05;;;24.30;99.90;;;;;;5012804;28;20124;-76
2023/05/06 10:07:10;;;;;;;15.57;14.27;;;24.20;99.90;;;;;;4999719;28;20406;-76
2023/05/06 10:09:43;;;;;;;14.93;13.57;;;24.40;99.90;;;;;;4995131;28;20074;-76
2023/05/06 10:12:09;;;;;;;13.95;12.63;;;24.60;99.90;;;;;;4993900;28;20046;-77
2023/05/06 10:14:38;;;;;;;14.43;13.07;;;24.80;99.90;;;;;;4994911;28;20053;-76
2023/05/06 10:17:09;;;;;;;14.52;13.23;;;24.90;99.90;;;;;;5009883;28;20491;-76
2023/05/06 10:19:38;;;;;;;14.75;13.45;;;25.20;99.90;;;;;;4995446;28;20035;-76
2023/05/06 10:22:21;;;;;;;14.68;13.27;;;25.30;99.90;;;;;;5004927;28;20041;-76
2023/05/06 10:25:22;;;;;;;14.65;13.25;;;25.40;99.90;;;;;;5028780;28;20073;-76
2023/05/06 10:27:47;;;;;;;13.85;12.50;;;25.70;99.90;;;;;;4987747;28;20106;-76
2023/05/06 10:30:17;;;;;;;13.45;12.13;;;25.70;99.90;;;;;;4993598;28;20077;-76
2023/05/06 10:32:46;;;;;;;15.02;13.65;;;25.80;99.90;;;;;;5009778;28;20046;-76
2023/05/06 10:35:37;;;;;;;12.60;11.40;;;25.90;99.90;;;;;;5008875;28;20092;-76
2023/05/06 10:38:05;;;;;;;11.23;10.05;;;26.10;83.50;;;;;;4993300;28;20454;-76
2023/05/06 10:40:31;;;;;;;13.35;12.10;;;26.20;99.90;;;;;;4993404;28;20077;-76
2023/05/06 10:43:30;;;;;;;12.85;11.68;;;26.00;90.00;;;;;;4976993;28;20077;-76
2023/05/06 10:45:59;;;;;;;13.55;12.27;;;25.80;82.10;;;;;;4985208;28;20050;-76
2023/05/06 10:48:24;;;;;;;13.68;12.30;;;25.40;92.20;;;;;;5001790;28;20085;-76
2023/05/06 10:50:50;;;;;;;13.93;12.57;;;25.10;96.70;;;;;;5004633;28;20073;-76
2023/05/06 10:53:15;;;;;;;11.65;10.55;;;24.70;98.90;;;;;;5011862;28;20045;-76
2023/05/06 10:55:43;;;;;;;12.60;11.50;;;24.10;98.40;;;;;;5021243;28;20025;-77
2023/05/06 10:58:14;;;;;;;12.45;11.25;;;23.70;99.90;;;;;;4991191;28;20029;-76
2023/05/06 11:00:40;;;;;;;12.18;11.02;;;23.30;99.90;;;;;;5017044;28;20038;-75
2023/05/06 11:03:17;;;;;;;10.70;9.18;;;23.00;99.90;;;;;;5008838;28;20045;-75
2023/05/06 11:05:53;;;;;;;13.30;12.02;;;22.90;99.90;;;;;;5006360;28;20053;-78
2023/05/06 11:08:25;;;;;;;10.07;9.07;;;23.00;99.90;;;;;;5004560;28;20487;-76
2023/05/06 11:10:52;;;;;;;9.40;8.35;;;23.10;99.90;;;;;;4995549;28;20044;-77
2023/05/06 11:13:33;;;;;;;11.55;9.93;;;22.90;99.90;;;;;;4996153;28;20046;-76
2023/05/06 11:16:04;;;;;;;11.30;10.20;;;23.10;99.90;;;;;;4994717;28;20490;-76
2023/05/06 11:18:35;;;;;;;12.02;10.93;;;23.40;99.90;;;;;;5003863;28;20321;-76
2023/05/06 11:21:01;;;;;;;13.00;11.80;;;23.30;99.90;;;;;;5011003;28;20046;-76
2023/05/06 11:23:54;;;;;;;13.32;11.93;;;23.00;99.90;;;;;;5011966;28;20045;-76
2023/05/06 11:26:29;;;;;;;13.80;12.50;;;22.70;99.90;;;;;;4982137;28;20128;-77
2023/05/06 11:29:06;;;;;;;13.85;12.65;;;22.20;99.90;;;;;;4984087;28;20138;-76
2023/05/06 11:31:47;;;;;;;11.85;10.63;;;22.00;99.90;;;;;;4976644;28;20423;-76
2023/05/06 11:34:24;;;;;;;12.63;11.52;;;22.00;99.90;;;;;;5021825;28;20042;-76
2023/05/06 11:36:54;;;;;;;12.13;10.88;;;21.80;99.90;;;;;;5003469;28;20073;-76
2023/05/06 11:39:22;;;;;;;11.55;10.23;;;21.80;99.90;;;;;;4992151;28;20042;-76
2023/05/06 11:41:54;;;;;;;11.18;10.07;;;21.80;99.90;;;;;;4985287;28;20392;-75
2023/05/06 11:44:25;;;;;;;12.25;10.90;;;21.90;99.90;;;;;;4998060;28;20037;-75
2023/05/06 11:46:54;;;;;;;12.20;10.30;;;21.90;99.90;;;;;;5010472;28;20552;-75
2023/05/06 11:49:20;;;;;;;11.88;10.55;;;21.80;99.90;;;;;;5004034;28;20078;-74
2023/05/06 11:51:48;;;;;;;11.85;10.63;;;21.60;99.90;;;;;;5010736;28;20469;-75
2023/05/06 11:54:15;;;;;;;11.75;10.65;;;21.50;99.90;;;;;;5011643;28;20540;-75
2023/05/06 11:56:48;;;;;;;12.18;10.95;;;22.00;99.90;;;;;;5011350;28;20425;-75
2023/05/06 11:59:14;;;;;;;12.50;9.82;;;23.00;99.90;;;;;;5027946;28;20046;-75
2023/05/06 12:01:41;;;;;;;10.90;9.80;;;23.90;99.90;;;;;;5010628;28;20081;-75
2023/05/06 12:04:07;;;;;;;9.50;8.30;;;24.00;99.90;;;;;;5003476;28;20128;-75
2023/05/06 12:06:38;;;;;;;9.48;7.95;;;24.00;99.70;;;;;;5010900;28;20526;-75
2023/05/06 12:09:06;;;;;;;8.43;7.20;;;23.80;99.90;;;;;;5009957;28;20068;-75
2023/05/06 12:11:33;;;;;;;7.28;6.50;;;23.60;98.00;;;;;;5008406;28;20494;-76
2023/05/06 12:14:01;;;;;;;7.70;6.70;;;23.40;97.10;;;;;;4990385;28;20045;-75
2023/05/06 12:16:27;;;;;;;7.63;6.82;;;23.30;99.90;;;;;;5007728;28;20042;-75
2023/05/06 12:18:53;;;;;;;8.65;6.80;;;23.20;98.50;;;;;;5011088;28;20497;-75
2023/05/06 12:21:22;;;;;;;8.88;6.95;;;22.90;99.20;;;;;;5011782;28;20038;-75
2023/05/06 12:23:53;;;;;;;9.43;7.35;;;22.70;99.90;;;;;;4993994;28;20136;-75
2023/05/06 12:26:19;;;;;;;8.63;6.95;;;22.60;99.90;;;;;;5004886;28;20042;-75
2023/05/06 12:28:45;;;;;;;8.25;7.45;;;22.60;98.40;;;;;;5009996;28;20413;-75
2023/05/06 12:31:18;;;;;;;7.07;6.38;;;23.10;99.90;;;;;;5010844;28;20034;-75
2023/05/06 12:33:46;;;;;;;7.70;5.88;;;23.80;99.90;;;;;;5010752;28;20132;-75
2023/05/06 12:36:11;;;;;;;6.90;5.63;;;24.70;96.10;;;;;;5010724;28;20045;-75
2023/05/06 12:38:37;;;;;;;8.35;4.88;;;25.40;88.50;;;;;;5010484;28;20175;-75